sensor_id;sensor_type;location;lat;lon;timestamp;temperature;humidity
38239;DHT22;24035;48.900;9.188;2024-03-08T00:01:32;3.10;1.00
38239;DHT22;24035;48.900;9.188;2024-03-08T00:04:18;3.10;1.00
38239;DHT22;24035;48.900;9.188;2024-03-08T00:07:03;3.00;1.00
38239;DHT22;24035;48.900;9.188;2024-03-08T00:09:49;3.00;1.00
38239;DHT22;24035;48.900;9.188;2024-03-08T00:12:35;2.90;1.00
38239;DHT22;24035;48.900;9.188;2024-03-08T00:15:21;2.90;1.00
38239;DHT22;24035;48.900;9.188;2024-03-08T00:18:08;2.80;1.00
38239;DHT22;24035;48.900;9.188;2024-03-08T00:20:54;2.80;1.00
38239;DHT22;24035;48.900;9.188;2024-03-08T00:23:40;2.80;48.00
38239;DHT22;24035;48.900;9.188;2024-03-08T00:26:27;2.90;1.00
38239;DHT22;24035;48.900;9.188;2024-03-08T00:29:14;2.80;1.00
38239;DHT22;24035;48.900;9.188;2024-03-08T00:32:00;2.90;1.00
38239;DHT22;24035;48.900;9.188;2024-03-08T00:34:46;2.80;1.00
38239;DHT22;24035;48.900;9.188;2024-03-08T00:37:32;2.70;1.00
38239;DHT22;24035;48.900;9.188;2024-03-08T00:40:19;2.60;1.00
38239;DHT22;24035;48.900;9.188;2024-03-08T00:43:05;2.50;99.90
38239;DHT22;24035;48.900;9.188;2024-03-08T00:45:51;2.50;99.90
38239;DHT22;24035;48.900;9.188;2024-03-08T00:48:37;2.40;99.90
38239;DHT22;24035;48.900;9.188;2024-03-08T00:51:23;2.30;1.00
38239;DHT22;24035;48.900;9.188;2024-03-08T00:54:09;2.10;1.00
38239;DHT22;24035;48.900;9.188;2024-03-08T00:56:55;2.00;1.00
38239;DHT22;24035;48.900;9.188;2024-03-08T00:59:41;1.90;1.00
38239;DHT22;24035;48.900;9.188;2024-03-08T01:02:27;1.80;1.00
38239;DHT22;24035;48.900;9.188;2024-03-08T01:05:13;1.60;1.00
38239;DHT22;24035;48.900;9.188;2024-03-08T01:07:59;1.60;99.90
38239;DHT22;24035;48.900;9.188;2024-03-08T01:10:44;1.60;1.00
38239;DHT22;24035;48.900;9.188;2024-03-08T01:13:31;1.60;1.00
38239;DHT22;24035;48.900;9.188;2024-03-08T01:16:16;1.40;1.00
38239;DHT22;24035;48.900;9.188;2024-03-08T01:19:02;1.30;1.00
38239;DHT22;24035;48.900;9.188;2024-03-08T01:21:49;1.20;1.00
38239;DHT22;24035;48.900;9.188;2024-03-08T01:24:35;1.30;99.90
38239;DHT22;24035;48.900;9.188;2024-03-08T01:27:21;1.30;1.00
38239;DHT22;24035;48.900;9.188;2024-03-08T01:30:07;1.30;1.00
38239;DHT22;24035;48.900;9.188;2024-03-08T01:32:55;1.30;1.00
38239;DHT22;24035;48.900;9.188;2024-03-08T01:35:40;1.40;1.00
38239;DHT22;24035;48.900;9.188;2024-03-08T01:38:27;1.40;1.00
38239;DHT22;24035;48.900;9.188;2024-03-08T01:41:13;1.40;1.00
38239;DHT22;24035;48.900;9.188;2024-03-08T01:43:59;1.40;99.90
38239;DHT22;24035;48.900;9.188;2024-03-08T01:46:46;1.40;99.90
38239;DHT22;24035;48.900;9.188;2024-03-08T01:49:32;1.40;99.90
38239;DHT22;24035;48.900;9.188;2024-03-08T01:52:19;1.40;99.90
38239;DHT22;24035;48.900;9.188;2024-03-08T01:55:06;1.40;99.90
38239;DHT22;24035;48.900;9.188;2024-03-08T01:57:53;1.40;99.90
38239;DHT22;24035;48.900;9.188;2024-03-08T02:00:39;1.40;99.90
38239;DHT22;24035;48.900;9.188;2024-03-08T02:03:26;1.50;99.90
38239;DHT22;24035;48.900;9.188;2024-03-08T02:06:12;1.50;74.50
38239;DHT22;24035;48.900;9.188;2024-03-08T02:09:00;1.50;1.00
38239;DHT22;24035;48.900;9.188;2024-03-08T02:11:46;1.40;1.00
38239;DHT22;24035;48.900;9.188;2024-03-08T02:14:32;1.40;1.00
38239;DHT22;24035;48.900;9.188;2024-03-08T02:17:18;1.40;1.00
38239;DHT22;24035;48.900;9.188;2024-03-08T02:20:04;1.40;1.00
38239;DHT22;24035;48.900;9.188;2024-03-08T02:22:50;1.30;1.00
38239;DHT22;24035;48.900;9.188;2024-03-08T02:25:36;1.10;1.00
38239;DHT22;24035;48.900;9.188;2024-03-08T02:28:23;1.10;1.00
38239;DHT22;24035;48.900;9.188;2024-03-08T02:31:10;1.00;91.30
38239;DHT22;24035;48.900;9.188;2024-03-08T02:33:56;0.90;1.00
38239;DHT22;24035;48.900;9.188;2024-03-08T02:36:42;0.90;99.90
38239;DHT22;24035;48.900;9.188;2024-03-08T02:39:28;0.80;99.90
38239;DHT22;24035;48.900;9.188;2024-03-08T02:42:14;0.70;99.90
38239;DHT22;24035;48.900;9.188;2024-03-08T02:45:00;0.70;1.00
38239;DHT22;24035;48.900;9.188;2024-03-08T02:47:45;0.60;1.00
38239;DHT22;24035;48.900;9.188;2024-03-08T02:50:32;0.50;1.00
38239;DHT22;24035;48.900;9.188;2024-03-08T02:53:18;0.40;1.00
38239;DHT22;24035;48.900;9.188;2024-03-08T02:56:04;0.30;1.00
38239;DHT22;24035;48.900;9.188;2024-03-08T02:58:54;0.20;1.00
38239;DHT22;24035;48.900;9.188;2024-03-08T03:01:39;0.20;55.50
38239;DHT22;24035;48.900;9.188;2024-03-08T03:04:26;0.20;99.90
38239;DHT22;24035;48.900;9.188;2024-03-08T03:07:13;0.20;1.00
38239;DHT22;24035;48.900;9.188;2024-03-08T03:10:00;0.20;1.00
38239;DHT22;24035;48.900;9.188;2024-03-08T03:12:46;0.20;1.00
38239;DHT22;24035;48.900;9.188;2024-03-08T03:15:34;0.30;1.00
38239;DHT22;24035;48.900;9.188;2024-03-08T03:18:20;0.40;1.00
38239;DHT22;24035;48.900;9.188;2024-03-08T03:21:09;0.50;99.90
38239;DHT22;24035;48.900;9.188;2024-03-08T03:23:55;0.60;1.00
38239;DHT22;24035;48.900;9.188;2024-03-08T03:26:41;0.60;1.00
38239;DHT22;24035;48.900;9.188;2024-03-08T03:29:26;0.50;99.90
38239;DHT22;24035;48.900;9.188;2024-03-08T03:32:13;0.60;1.00
38239;DHT22;24035;48.900;9.188;2024-03-08T03:34:59;0.80;99.90
38239;DHT22;24035;48.900;9.188;2024-03-08T03:37:45;0.80;1.00
38239;DHT22;24035;48.900;9.188;2024-03-08T03:40:37;0.70;1.00
38239;DHT22;24035;48.900;9.188;2024-03-08T03:43:24;0.60;1.00
38239;DHT22;24035;48.900;9.188;2024-03-08T03:46:10;0.50;99.90
38239;DHT22;24035;48.900;9.188;2024-03-08T03:48:56;0.40;99.90
38239;DHT22;24035;48.900;9.188;2024-03-08T03:51:42;0.30;99.90
38239;DHT22;24035;48.900;9.188;2024-03-08T03:54:28;0.20;1.00
38239;DHT22;24035;48.900;9.188;2024-03-08T03:57:16;0.20;1.00
38239;DHT22;24035;48.900;9.188;2024-03-08T04:00:02;0.20;1.00
38239;DHT22;24035;48.900;9.188;2024-03-08T04:02:48;0.10;1.00
38239;DHT22;24035;48.900;9.188;2024-03-08T04:05:34;0.10;1.00
38239;DHT22;24035;48.900;9.188;2024-03-08T04:08:20;0.00;1.00
38239;DHT22;24035;48.900;9.188;2024-03-08T04:11:07;-0.10;1.00
38239;DHT22;24035;48.900;9.188;2024-03-08T04:13:54;-0.10;99.90
38239;DHT22;24035;48.900;9.188;2024-03-08T04:16:40;-0.20;99.90
38239;DHT22;24035;48.900;9.188;2024-03-08T04:19:26;-0.30;99.90
38239;DHT22;24035;48.900;9.188;2024-03-08T04:22:12;-0.30;1.00
38239;DHT22;24035;48.900;9.188;2024-03-08T04:24:58;-0.30;1.00
38239;DHT22;24035;48.900;9.188;2024-03-08T04:27:44;-0.20;1.00
38239;DHT22;24035;48.900;9.188;2024-03-08T04:30:30;-0.20;99.90
38239;DHT22;24035;48.900;9.188;2024-03-08T04:33:16;-0.20;99.90
38239;DHT22;24035;48.900;9.188;2024-03-08T04:36:03;-0.20;99.90
38239;DHT22;24035;48.900;9.188;2024-03-08T04:38:53;-0.20;99.90
38239;DHT22;24035;48.900;9.188;2024-03-08T04:41:39;-0.20;99.90
38239;DHT22;24035;48.900;9.188;2024-03-08T04:44:25;-0.20;99.90
38239;DHT22;24035;48.900;9.188;2024-03-08T04:47:12;-0.20;1.00
38239;DHT22;24035;48.900;9.188;2024-03-08T04:49:57;-0.20;99.90
38239;DHT22;24035;48.900;9.188;2024-03-08T04:52:44;-0.30;99.90
38239;DHT22;24035;48.900;9.188;2024-03-08T04:55:29;-0.40;1.00
38239;DHT22;24035;48.900;9.188;2024-03-08T04:58:15;-0.60;1.00
38239;DHT22;24035;48.900;9.188;2024-03-08T05:01:02;-0.70;1.00
38239;DHT22;24035;48.900;9.188;2024-03-08T05:03:48;-0.80;1.00
38239;DHT22;24035;48.900;9.188;2024-03-08T05:06:35;-0.80;99.90
38239;DHT22;24035;48.900;9.188;2024-03-08T05:09:22;-0.90;99.90
38239;DHT22;24035;48.900;9.188;2024-03-08T05:12:08;-0.90;99.90
38239;DHT22;24035;48.900;9.188;2024-03-08T05:14:54;-1.00;99.90
38239;DHT22;24035;48.900;9.188;2024-03-08T05:17:41;-1.00;1.00
38239;DHT22;24035;48.900;9.188;2024-03-08T05:20:27;-1.10;1.00
38239;DHT22;24035;48.900;9.188;2024-03-08T05:23:13;-1.00;1.00
38239;DHT22;24035;48.900;9.188;2024-03-08T05:25:59;-1.10;1.00
38239;DHT22;24035;48.900;9.188;2024-03-08T05:28:45;-1.10;1.00
38239;DHT22;24035;48.900;9.188;2024-03-08T05:31:49;-1.10;45.00
38239;DHT22;24035;48.900;9.188;2024-03-08T05:34:35;-1.00;61.40
38239;DHT22;24035;48.900;9.188;2024-03-08T05:37:21;-1.10;33.80
38239;DHT22;24035;48.900;9.188;2024-03-08T05:40:08;-1.10;1.00
38239;DHT22;24035;48.900;9.188;2024-03-08T05:42:57;-1.10;15.20
38239;DHT22;24035;48.900;9.188;2024-03-08T05:45:44;-1.20;95.80
38239;DHT22;24035;48.900;9.188;2024-03-08T05:48:30;-1.20;99.90
38239;DHT22;24035;48.900;9.188;2024-03-08T05:51:17;-1.20;99.90
38239;DHT22;24035;48.900;9.188;2024-03-08T05:54:12;-1.10;1.00
38239;DHT22;24035;48.900;9.188;2024-03-08T05:56:58;-1.10;1.00
38239;DHT22;24035;48.900;9.188;2024-03-08T05:59:43;-0.80;99.90
38239;DHT22;24035;48.900;9.188;2024-03-08T06:02:29;-0.50;1.00
38239;DHT22;24035;48.900;9.188;2024-03-08T06:05:15;-0.40;1.00
38239;DHT22;24035;48.900;9.188;2024-03-08T06:08:01;-0.40;99.90
38239;DHT22;24035;48.900;9.188;2024-03-08T06:10:47;-0.30;1.00
38239;DHT22;24035;48.900;9.188;2024-03-08T06:13:38;-0.30;1.00
38239;DHT22;24035;48.900;9.188;2024-03-08T06:16:24;-0.30;1.00
38239;DHT22;24035;48.900;9.188;2024-03-08T06:19:10;-0.20;1.00
38239;DHT22;24035;48.900;9.188;2024-03-08T06:21:57;-0.10;1.00
38239;DHT22;24035;48.900;9.188;2024-03-08T06:24:43;-0.20;99.90
38239;DHT22;24035;48.900;9.188;2024-03-08T06:27:29;-0.10;99.90
38239;DHT22;24035;48.900;9.188;2024-03-08T06:30:15;-0.10;99.90
38239;DHT22;24035;48.900;9.188;2024-03-08T06:33:01;0.20;1.00
38239;DHT22;24035;48.900;9.188;2024-03-08T06:35:48;0.20;1.00
38239;DHT22;24035;48.900;9.188;2024-03-08T06:38:33;0.30;99.90
38239;DHT22;24035;48.900;9.188;2024-03-08T06:41:20;0.30;46.60
38239;DHT22;24035;48.900;9.188;2024-03-08T06:44:05;0.40;1.00
38239;DHT22;24035;48.900;9.188;2024-03-08T06:46:53;0.50;43.10
38239;DHT22;24035;48.900;9.188;2024-03-08T06:49:39;0.60;99.90
38239;DHT22;24035;48.900;9.188;2024-03-08T06:52:25;0.80;1.00
38239;DHT22;24035;48.900;9.188;2024-03-08T06:55:11;0.90;1.00
38239;DHT22;24035;48.900;9.188;2024-03-08T06:57:57;0.90;99.90
38239;DHT22;24035;48.900;9.188;2024-03-08T07:00:43;1.10;99.90
38239;DHT22;24035;48.900;9.188;2024-03-08T07:03:29;1.30;99.90
38239;DHT22;24035;48.900;9.188;2024-03-08T07:06:15;1.50;1.00
38239;DHT22;24035;48.900;9.188;2024-03-08T07:09:04;1.60;99.90
38239;DHT22;24035;48.900;9.188;2024-03-08T07:11:51;1.70;1.00
38239;DHT22;24035;48.900;9.188;2024-03-08T07:14:47;1.90;99.90
38239;DHT22;24035;48.900;9.188;2024-03-08T07:17:33;2.10;1.00
38239;DHT22;24035;48.900;9.188;2024-03-08T07:20:21;2.40;1.00
38239;DHT22;24035;48.900;9.188;2024-03-08T07:23:07;2.50;99.90
38239;DHT22;24035;48.900;9.188;2024-03-08T07:25:54;2.70;1.00
38239;DHT22;24035;48.900;9.188;2024-03-08T07:28:40;2.90;1.00
38239;DHT22;24035;48.900;9.188;2024-03-08T07:31:26;3.00;47.00
38239;DHT22;24035;48.900;9.188;2024-03-08T07:34:12;3.20;1.00
38239;DHT22;24035;48.900;9.188;2024-03-08T07:36:58;3.30;1.00
38239;DHT22;24035;48.900;9.188;2024-03-08T07:39:45;3.50;99.90
38239;DHT22;24035;48.900;9.188;2024-03-08T07:42:30;3.60;99.90
38239;DHT22;24035;48.900;9.188;2024-03-08T07:45:16;3.80;1.00
38239;DHT22;24035;48.900;9.188;2024-03-08T07:48:02;4.00;1.00
38239;DHT22;24035;48.900;9.188;2024-03-08T07:50:48;4.00;1.00
38239;DHT22;24035;48.900;9.188;2024-03-08T07:53:35;4.00;1.00
38239;DHT22;24035;48.900;9.188;2024-03-08T07:56:21;4.00;1.00
38239;DHT22;24035;48.900;9.188;2024-03-08T07:59:07;4.10;1.00
38239;DHT22;24035;48.900;9.188;2024-03-08T08:01:53;4.20;1.00
38239;DHT22;24035;48.900;9.188;2024-03-08T08:04:39;4.40;1.00
38239;DHT22;24035;48.900;9.188;2024-03-08T08:07:25;4.40;1.00
38239;DHT22;24035;48.900;9.188;2024-03-08T08:10:12;4.40;1.00
38239;DHT22;24035;48.900;9.188;2024-03-08T08:13:04;4.40;99.90
38239;DHT22;24035;48.900;9.188;2024-03-08T08:15:50;4.50;99.90
38239;DHT22;24035;48.900;9.188;2024-03-08T08:18:36;4.50;99.90
38239;DHT22;24035;48.900;9.188;2024-03-08T08:21:22;4.60;99.90
38239;DHT22;24035;48.900;9.188;2024-03-08T08:24:08;4.80;99.90
38239;DHT22;24035;48.900;9.188;2024-03-08T08:26:54;5.00;99.90
38239;DHT22;24035;48.900;9.188;2024-03-08T08:29:40;5.10;99.90
38239;DHT22;24035;48.900;9.188;2024-03-08T08:32:25;5.20;99.90
38239;DHT22;24035;48.900;9.188;2024-03-08T08:35:12;5.30;77.20
38239;DHT22;24035;48.900;9.188;2024-03-08T08:37:58;5.30;31.60
38239;DHT22;24035;48.900;9.188;2024-03-08T08:40:44;5.30;29.90
38239;DHT22;24035;48.900;9.188;2024-03-08T08:43:30;5.30;1.00
38239;DHT22;24035;48.900;9.188;2024-03-08T08:46:18;5.30;16.70
38239;DHT22;24035;48.900;9.188;2024-03-08T08:49:05;5.40;34.90
38239;DHT22;24035;48.900;9.188;2024-03-08T08:51:52;5.40;1.00
38239;DHT22;24035;48.900;9.188;2024-03-08T08:54:38;5.40;43.60
38239;DHT22;24035;48.900;9.188;2024-03-08T08:57:24;5.60;1.00
38239;DHT22;24035;48.900;9.188;2024-03-08T09:00:10;5.60;1.00
38239;DHT22;24035;48.900;9.188;2024-03-08T09:03:00;5.60;1.00
38239;DHT22;24035;48.900;9.188;2024-03-08T09:05:48;5.80;1.00
38239;DHT22;24035;48.900;9.188;2024-03-08T09:08:33;5.80;1.00
38239;DHT22;24035;48.900;9.188;2024-03-08T09:11:20;5.80;1.00
38239;DHT22;24035;48.900;9.188;2024-03-08T09:14:05;5.70;1.00
38239;DHT22;24035;48.900;9.188;2024-03-08T09:16:52;5.60;1.00
38239;DHT22;24035;48.900;9.188;2024-03-08T09:19:38;5.70;1.00
38239;DHT22;24035;48.900;9.188;2024-03-08T09:22:23;5.70;1.00
38239;DHT22;24035;48.900;9.188;2024-03-08T09:25:09;5.80;1.00
38239;DHT22;24035;48.900;9.188;2024-03-08T09:27:55;5.70;1.00
38239;DHT22;24035;48.900;9.188;2024-03-08T09:30:41;5.70;1.00
38239;DHT22;24035;48.900;9.188;2024-03-08T09:33:27;5.80;1.00
38239;DHT22;24035;48.900;9.188;2024-03-08T09:36:14;5.70;1.00
38239;DHT22;24035;48.900;9.188;2024-03-08T09:39:00;5.80;1.00
38239;DHT22;24035;48.900;9.188;2024-03-08T09:41:49;5.70;1.00
38239;DHT22;24035;48.900;9.188;2024-03-08T09:44:35;5.80;1.00
38239;DHT22;24035;48.900;9.188;2024-03-08T09:47:22;5.80;1.00
38239;DHT22;24035;48.900;9.188;2024-03-08T09:50:11;6.00;1.00
38239;DHT22;24035;48.900;9.188;2024-03-08T09:53:00;6.00;1.00
38239;DHT22;24035;48.900;9.188;2024-03-08T09:55:46;6.20;1.00
38239;DHT22;24035;48.900;9.188;2024-03-08T09:58:35;6.20;1.00
38239;DHT22;24035;48.900;9.188;2024-03-08T10:01:21;6.10;1.00
38239;DHT22;24035;48.900;9.188;2024-03-08T10:04:07;6.30;1.00
38239;DHT22;24035;48.900;9.188;2024-03-08T10:06:53;6.30;1.00
38239;DHT22;24035;48.900;9.188;2024-03-08T10:09:39;6.40;1.00
38239;DHT22;24035;48.900;9.188;2024-03-08T10:12:25;6.30;1.00
38239;DHT22;24035;48.900;9.188;2024-03-08T10:15:11;6.30;1.00
38239;DHT22;24035;48.900;9.188;2024-03-08T10:17:58;6.30;1.00
38239;DHT22;24035;48.900;9.188;2024-03-08T10:20:44;6.60;1.00
38239;DHT22;24035;48.900;9.188;2024-03-08T10:23:30;6.90;1.00
38239;DHT22;24035;48.900;9.188;2024-03-08T10:26:16;6.90;1.00
38239;DHT22;24035;48.900;9.188;2024-03-08T10:29:04;6.90;1.00
38239;DHT22;24035;48.900;9.188;2024-03-08T10:31:49;7.00;1.00
38239;DHT22;24035;48.900;9.188;2024-03-08T10:34:36;7.10;1.00
38239;DHT22;24035;48.900;9.188;2024-03-08T10:37:22;7.20;1.00
38239;DHT22;24035;48.900;9.188;2024-03-08T10:40:10;7.10;1.00
38239;DHT22;24035;48.900;9.188;2024-03-08T10:43:01;7.20;1.00
38239;DHT22;24035;48.900;9.188;2024-03-08T10:45:48;7.40;1.00
38239;DHT22;24035;48.900;9.188;2024-03-08T10:48:43;7.50;1.00
38239;DHT22;24035;48.900;9.188;2024-03-08T10:51:30;7.60;99.90
38239;DHT22;24035;48.900;9.188;2024-03-08T10:54:16;7.70;99.90
38239;DHT22;24035;48.900;9.188;2024-03-08T10:57:03;7.60;99.90
38239;DHT22;24035;48.900;9.188;2024-03-08T10:59:51;7.60;99.90
38239;DHT22;24035;48.900;9.188;2024-03-08T11:02:38;7.80;99.90
38239;DHT22;24035;48.900;9.188;2024-03-08T11:05:36;8.00;99.90
38239;DHT22;24035;48.900;9.188;2024-03-08T11:08:24;8.30;99.90
38239;DHT22;24035;48.900;9.188;2024-03-08T11:11:30;8.30;99.90
38239;DHT22;24035;48.900;9.188;2024-03-08T11:14:45;8.50;99.90
38239;DHT22;24035;48.900;9.188;2024-03-08T11:20:20;7.50;99.90
38239;DHT22;24035;48.900;9.188;2024-03-08T11:23:06;7.20;99.90
38239;DHT22;24035;48.900;9.188;2024-03-08T11:25:52;7.10;1.00
38239;DHT22;24035;48.900;9.188;2024-03-08T11:28:38;6.90;1.00
38239;DHT22;24035;48.900;9.188;2024-03-08T11:31:25;6.80;1.00
38239;DHT22;24035;48.900;9.188;2024-03-08T11:34:15;6.70;1.00
38239;DHT22;24035;48.900;9.188;2024-03-08T11:37:08;6.60;1.00
38239;DHT22;24035;48.900;9.188;2024-03-08T11:39:58;6.60;1.00
38239;DHT22;24035;48.900;9.188;2024-03-08T11:42:49;6.60;1.00
38239;DHT22;24035;48.900;9.188;2024-03-08T11:45:37;6.50;1.00
38239;DHT22;24035;48.900;9.188;2024-03-08T11:48:23;6.50;1.00
38239;DHT22;24035;48.900;9.188;2024-03-08T11:51:14;6.60;1.00
38239;DHT22;24035;48.900;9.188;2024-03-08T11:54:00;6.60;1.00
38239;DHT22;24035;48.900;9.188;2024-03-08T11:56:46;6.60;1.00
38239;DHT22;24035;48.900;9.188;2024-03-08T11:59:33;6.70;1.00
38239;DHT22;24035;48.900;9.188;2024-03-08T12:02:19;6.70;1.00
38239;DHT22;24035;48.900;9.188;2024-03-08T12:05:05;6.70;1.00
38239;DHT22;24035;48.900;9.188;2024-03-08T12:08:02;6.80;1.00
38239;DHT22;24035;48.900;9.188;2024-03-08T12:10:48;6.80;1.00
38239;DHT22;24035;48.900;9.188;2024-03-08T12:13:34;6.80;1.00
38239;DHT22;24035;48.900;9.188;2024-03-08T12:16:20;6.90;1.00
38239;DHT22;24035;48.900;9.188;2024-03-08T12:19:10;7.00;1.00
38239;DHT22;24035;48.900;9.188;2024-03-08T12:21:55;7.10;1.00
38239;DHT22;24035;48.900;9.188;2024-03-08T12:24:41;7.10;1.00
38239;DHT22;24035;48.900;9.188;2024-03-08T12:27:28;7.20;1.00
38239;DHT22;24035;48.900;9.188;2024-03-08T12:30:21;7.30;1.00
38239;DHT22;24035;48.900;9.188;2024-03-08T12:33:07;7.40;1.00
38239;DHT22;24035;48.900;9.188;2024-03-08T12:35:56;7.40;1.00
38239;DHT22;24035;48.900;9.188;2024-03-08T12:38:44;7.40;1.00
38239;DHT22;24035;48.900;9.188;2024-03-08T12:41:39;7.50;1.00
38239;DHT22;24035;48.900;9.188;2024-03-08T12:44:26;7.70;1.00
38239;DHT22;24035;48.900;9.188;2024-03-08T12:47:13;7.80;1.00
38239;DHT22;24035;48.900;9.188;2024-03-08T12:49:59;7.90;1.00
38239;DHT22;24035;48.900;9.188;2024-03-08T12:52:45;7.90;1.00
38239;DHT22;24035;48.900;9.188;2024-03-08T12:55:31;8.00;1.00
38239;DHT22;24035;48.900;9.188;2024-03-08T12:58:18;8.00;1.00
38239;DHT22;24035;48.900;9.188;2024-03-08T13:01:06;8.10;1.00
38239;DHT22;24035;48.900;9.188;2024-03-08T13:03:53;8.10;1.00
38239;DHT22;24035;48.900;9.188;2024-03-08T13:06:41;8.10;1.00
38239;DHT22;24035;48.900;9.188;2024-03-08T13:09:27;8.10;1.00
38239;DHT22;24035;48.900;9.188;2024-03-08T13:12:13;8.30;1.00
38239;DHT22;24035;48.900;9.188;2024-03-08T13:14:59;8.30;99.90
38239;DHT22;24035;48.900;9.188;2024-03-08T13:17:44;8.40;99.90
38239;DHT22;24035;48.900;9.188;2024-03-08T13:20:32;8.40;99.90
38239;DHT22;24035;48.900;9.188;2024-03-08T13:23:18;8.50;99.90
38239;DHT22;24035;48.900;9.188;2024-03-08T13:26:04;8.60;99.90
38239;DHT22;24035;48.900;9.188;2024-03-08T13:28:50;8.70;99.90
38239;DHT22;24035;48.900;9.188;2024-03-08T13:31:39;8.70;99.90
38239;DHT22;24035;48.900;9.188;2024-03-08T13:34:25;8.60;99.90
38239;DHT22;24035;48.900;9.188;2024-03-08T13:37:15;8.60;99.90
38239;DHT22;24035;48.900;9.188;2024-03-08T13:40:04;8.70;99.90
38239;DHT22;24035;48.900;9.188;2024-03-08T13:42:51;8.80;99.90
38239;DHT22;24035;48.900;9.188;2024-03-08T13:45:37;8.80;99.90
38239;DHT22;24035;48.900;9.188;2024-03-08T13:48:23;9.00;99.90
38239;DHT22;24035;48.900;9.188;2024-03-08T13:51:09;9.10;99.90
38239;DHT22;24035;48.900;9.188;2024-03-08T13:53:56;9.10;99.90
38239;DHT22;24035;48.900;9.188;2024-03-08T13:56:42;9.20;99.90
38239;DHT22;24035;48.900;9.188;2024-03-08T13:59:30;9.20;99.90
38239;DHT22;24035;48.900;9.188;2024-03-08T14:02:18;9.10;99.90
38239;DHT22;24035;48.900;9.188;2024-03-08T14:05:04;9.10;99.90
38239;DHT22;24035;48.900;9.188;2024-03-08T14:07:50;9.10;99.90
38239;DHT22;24035;48.900;9.188;2024-03-08T14:10:39;9.20;99.90
38239;DHT22;24035;48.900;9.188;2024-03-08T14:13:26;9.20;99.90
38239;DHT22;24035;48.900;9.188;2024-03-08T14:16:12;9.30;99.90
38239;DHT22;24035;48.900;9.188;2024-03-08T14:18:58;9.40;99.90
38239;DHT22;24035;48.900;9.188;2024-03-08T14:21:49;9.30;99.90
38239;DHT22;24035;48.900;9.188;2024-03-08T14:24:37;9.30;99.90
38239;DHT22;24035;48.900;9.188;2024-03-08T14:27:23;9.40;99.90
38239;DHT22;24035;48.900;9.188;2024-03-08T14:30:09;9.50;99.90
38239;DHT22;24035;48.900;9.188;2024-03-08T14:32:56;9.50;99.90
38239;DHT22;24035;48.900;9.188;2024-03-08T14:35:42;9.50;99.90
38239;DHT22;24035;48.900;9.188;2024-03-08T14:38:29;9.60;99.90
38239;DHT22;24035;48.900;9.188;2024-03-08T14:41:15;9.60;99.90
38239;DHT22;24035;48.900;9.188;2024-03-08T14:44:01;9.70;99.90
38239;DHT22;24035;48.900;9.188;2024-03-08T14:46:47;9.80;99.90
38239;DHT22;24035;48.900;9.188;2024-03-08T14:49:34;9.80;99.90
38239;DHT22;24035;48.900;9.188;2024-03-08T14:52:22;9.80;99.90
38239;DHT22;24035;48.900;9.188;2024-03-08T14:55:17;9.80;99.90
38239;DHT22;24035;48.900;9.188;2024-03-08T14:58:05;9.80;99.90
38239;DHT22;24035;48.900;9.188;2024-03-08T15:00:51;9.80;99.90
38239;DHT22;24035;48.900;9.188;2024-03-08T15:03:41;9.90;99.90
38239;DHT22;24035;48.900;9.188;2024-03-08T15:06:28;9.90;99.90
38239;DHT22;24035;48.900;9.188;2024-03-08T15:09:17;10.00;99.90
38239;DHT22;24035;48.900;9.188;2024-03-08T15:12:03;10.10;99.90
38239;DHT22;24035;48.900;9.188;2024-03-08T15:14:49;10.10;99.90
38239;DHT22;24035;48.900;9.188;2024-03-08T15:17:37;10.20;99.90
38239;DHT22;24035;48.900;9.188;2024-03-08T15:20:25;10.20;99.90
38239;DHT22;24035;48.900;9.188;2024-03-08T15:23:14;10.20;99.90
38239;DHT22;24035;48.900;9.188;2024-03-08T15:26:00;10.20;99.90
38239;DHT22;24035;48.900;9.188;2024-03-08T15:28:47;10.20;99.90
38239;DHT22;24035;48.900;9.188;2024-03-08T15:31:37;10.20;99.90
38239;DHT22;24035;48.900;9.188;2024-03-08T15:34:23;10.30;99.90
38239;DHT22;24035;48.900;9.188;2024-03-08T15:37:10;10.30;99.90
38239;DHT22;24035;48.900;9.188;2024-03-08T15:40:00;10.30;99.90
38239;DHT22;24035;48.900;9.188;2024-03-08T15:45:40;10.30;99.90
38239;DHT22;24035;48.900;9.188;2024-03-08T15:48:26;10.30;99.90
38239;DHT22;24035;48.900;9.188;2024-03-08T15:51:12;10.30;99.90
38239;DHT22;24035;48.900;9.188;2024-03-08T15:53:59;10.30;99.90
38239;DHT22;24035;48.900;9.188;2024-03-08T15:56:45;10.30;99.90
38239;DHT22;24035;48.900;9.188;2024-03-08T15:59:31;10.30;99.90
38239;DHT22;24035;48.900;9.188;2024-03-08T16:02:22;10.30;99.90
38239;DHT22;24035;48.900;9.188;2024-03-08T16:05:10;10.30;99.90
38239;DHT22;24035;48.900;9.188;2024-03-08T16:07:57;10.20;99.90
38239;DHT22;24035;48.900;9.188;2024-03-08T16:10:49;10.20;99.90
38239;DHT22;24035;48.900;9.188;2024-03-08T16:13:36;10.10;99.90
38239;DHT22;24035;48.900;9.188;2024-03-08T16:16:23;10.10;99.90
38239;DHT22;24035;48.900;9.188;2024-03-08T16:19:09;10.10;99.90
38239;DHT22;24035;48.900;9.188;2024-03-08T16:21:55;10.10;99.90
38239;DHT22;24035;48.900;9.188;2024-03-08T16:24:43;10.10;99.90
38239;DHT22;24035;48.900;9.188;2024-03-08T16:27:29;10.10;99.90
38239;DHT22;24035;48.900;9.188;2024-03-08T16:30:17;10.00;99.90
38239;DHT22;24035;48.900;9.188;2024-03-08T16:33:05;10.10;99.90
38239;DHT22;24035;48.900;9.188;2024-03-08T16:35:51;10.10;99.90
38239;DHT22;24035;48.900;9.188;2024-03-08T16:38:39;10.10;99.90
38239;DHT22;24035;48.900;9.188;2024-03-08T16:41:26;10.00;99.90
38239;DHT22;24035;48.900;9.188;2024-03-08T16:44:12;9.90;99.90
38239;DHT22;24035;48.900;9.188;2024-03-08T16:46:59;9.80;99.90
38239;DHT22;24035;48.900;9.188;2024-03-08T16:49:45;9.70;99.90
38239;DHT22;24035;48.900;9.188;2024-03-08T16:52:32;9.60;99.90
38239;DHT22;24035;48.900;9.188;2024-03-08T16:55:18;9.50;99.90
38239;DHT22;24035;48.900;9.188;2024-03-08T16:58:05;9.30;99.90
38239;DHT22;24035;48.900;9.188;2024-03-08T17:00:54;9.30;99.90
38239;DHT22;24035;48.900;9.188;2024-03-08T17:03:40;9.20;99.90
38239;DHT22;24035;48.900;9.188;2024-03-08T17:06:26;9.10;99.90
38239;DHT22;24035;48.900;9.188;2024-03-08T17:09:12;9.00;99.90
38239;DHT22;24035;48.900;9.188;2024-03-08T17:12:00;8.80;99.90
38239;DHT22;24035;48.900;9.188;2024-03-08T17:14:47;8.70;99.90
38239;DHT22;24035;48.900;9.188;2024-03-08T17:17:33;8.60;99.90
38239;DHT22;24035;48.900;9.188;2024-03-08T17:20:20;8.50;99.90
38239;DHT22;24035;48.900;9.188;2024-03-08T17:23:08;8.50;99.90
38239;DHT22;24035;48.900;9.188;2024-03-08T17:25:54;8.50;99.90
38239;DHT22;24035;48.900;9.188;2024-03-08T17:28:43;8.40;1.00
38239;DHT22;24035;48.900;9.188;2024-03-08T17:31:29;8.40;1.00
38239;DHT22;24035;48.900;9.188;2024-03-08T17:34:17;8.30;1.00
38239;DHT22;24035;48.900;9.188;2024-03-08T17:37:03;8.40;1.00
38239;DHT22;24035;48.900;9.188;2024-03-08T17:39:50;8.30;99.90
38239;DHT22;24035;48.900;9.188;2024-03-08T17:42:36;8.30;99.90
38239;DHT22;24035;48.900;9.188;2024-03-08T17:45:24;8.20;99.90
38239;DHT22;24035;48.900;9.188;2024-03-08T17:48:10;8.10;99.90
38239;DHT22;24035;48.900;9.188;2024-03-08T17:51:01;8.00;1.00
38239;DHT22;24035;48.900;9.188;2024-03-08T17:53:48;7.90;99.90
38239;DHT22;24035;48.900;9.188;2024-03-08T17:56:40;7.90;99.90
38239;DHT22;24035;48.900;9.188;2024-03-08T17:59:26;8.00;99.90
38239;DHT22;24035;48.900;9.188;2024-03-08T18:02:13;7.90;99.90